Time;durP1;ratioP1;P1;durP2;ratioP2;P2;SDS_P1;SDS_P2;PMS_P1;PMS_P2;Temp;Humidity;BMP_temperature;BMP_pressure;BME280_temperature;BME280_humidity;BME280_pressure;Samples;Min_cycle;Max_cycle;Signal;HPM_P1;HPM_P2
2021/11/26 00:01:34;;;;;;;56.47;22.10;;;;;;;0.56;90.75;97975.16;5075810;28;20115;-72
2021/11/26 00:04:00;;;;;;;54.45;22.30;;;;;;;0.61;91.12;97980.84;5071375;28;20012;-72
2021/11/26 00:06:26;;;;;;;50.65;19.90;;;;;;;0.42;89.67;97943.84;5069502;28;20107;-71
2021/11/26 00:08:52;;;;;;;49.10;20.98;;;;;;;0.53;89.72;97954.19;5070821;28;20051;-71
2021/11/26 00:11:17;;;;;;;45.88;20.08;;;;;;;0.66;89.58;97961.72;5070575;28;20091;-71
2021/11/26 00:13:47;;;;;;;50.45;21.73;;;;;;;0.64;89.50;97953.91;5072581;28;20064;-72
2021/11/26 00:16:18;;;;;;;55.38;21.83;;;;;;;0.70;89.62;97959.56;5074433;28;20029;-71
2021/11/26 00:18:48;;;;;;;49.40;20.92;;;;;;;0.52;89.55;97922.41;5072457;28;20099;-71
2021/11/26 00:21:13;;;;;;;52.63;21.38;;;;;;;0.71;89.83;97950.56;5073139;28;20024;-72
2021/11/26 00:23:38;;;;;;;56.85;21.90;;;;;;;0.68;90.30;97943.75;5074196;28;20020;-72
2021/11/26 00:26:04;;;;;;;51.45;20.55;;;;;;;0.69;90.33;97933.97;5082177;28;20043;-71
2021/11/26 00:28:29;;;;;;;48.85;21.17;;;;;;;0.74;89.93;97929.81;5084644;28;20039;-71
2021/11/26 00:30:54;;;;;;;48.88;20.45;;;;;;;0.71;90.27;97922.16;5058636;28;20493;-71
2021/11/26 00:33:21;;;;;;;54.55;21.17;;;;;;;0.57;90.48;97894.31;5073707;28;20028;-71
2021/11/26 00:35:47;;;;;;;49.38;20.63;;;;;;;0.70;90.72;97920.47;5070678;28;20429;-71
2021/11/26 00:38:12;;;;;;;52.08;20.75;;;;;;;0.72;90.65;97918.47;5074005;28;20043;-71
2021/11/26 00:40:38;;;;;;;51.20;22.63;;;;;;;0.74;90.84;97918.34;5054409;28;20051;-71
2021/11/26 00:43:03;;;;;;;54.90;21.40;;;;;;;0.67;91.53;97911.97;5078495;28;20169;-71
2021/11/26 00:45:29;;;;;;;49.58;20.00;;;;;;;0.62;92.06;97893.84;5073120;28;20394;-71
2021/11/26 00:47:54;;;;;;;46.92;19.90;;;;;;;0.54;92.42;97891.16;5070873;28;20031;-72
2021/11/26 00:50:19;;;;;;;49.35;20.58;;;;;;;0.70;92.65;97907.16;5071322;28;20028;-71
2021/11/26 00:52:45;;;;;;;49.70;19.92;;;;;;;0.73;92.20;97909.47;5065205;28;20467;-71
2021/11/26 00:55:12;;;;;;;53.25;19.65;;;;;;;0.76;91.56;97906.53;5065059;28;20115;-72
2021/11/26 00:57:38;;;;;;;52.15;20.45;;;;;;;0.71;91.12;97907.97;5072440;28;20115;-72
2021/11/26 01:00:10;;;;;;;50.40;21.50;;;;;;;0.69;90.71;97904.69;5069755;28;20470;-72
2021/11/26 01:02:35;;;;;;;52.00;21.23;;;;;;;0.63;90.91;97884.88;5071854;28;20028;-72
2021/11/26 01:05:01;;;;;;;51.45;20.27;;;;;;;0.73;91.74;97906.00;5067211;28;20032;-72
2021/11/26 01:07:27;;;;;;;47.97;20.65;;;;;;;0.48;91.31;97862.53;5072616;28;20409;-71
2021/11/26 01:09:52;;;;;;;48.25;20.30;;;;;;;0.50;92.01;97861.38;5062774;28;20043;-72
2021/11/26 01:12:18;;;;;;;47.08;19.85;;;;;;;0.72;92.16;97899.03;5066455;28;20410;-71
2021/11/26 01:14:44;;;;;;;50.45;21.30;;;;;;;0.71;92.34;97886.69;5072889;28;20040;-71
2021/11/26 01:17:09;;;;;;;48.75;20.92;;;;;;;0.70;92.36;97893.03;5071588;28;20033;-71
2021/11/26 01:19:34;;;;;;;49.92;20.85;;;;;;;0.58;91.65;97869.38;5064978;28;20041;-71
2021/11/26 01:22:00;;;;;;;52.47;21.20;;;;;;;0.55;91.76;97850.22;5077055;28;20074;-72
2021/11/26 01:24:25;;;;;;;48.08;20.60;;;;;;;0.69;91.24;97883.38;5072812;28;20111;-72
2021/11/26 01:26:50;;;;;;;53.47;21.95;;;;;;;0.75;90.90;97882.72;5073021;28;20025;-72
2021/11/26 01:29:16;;;;;;;48.28;20.60;;;;;;;0.68;90.55;97876.38;5067223;28;20104;-71
2021/11/26 01:31:41;;;;;;;50.90;20.83;;;;;;;0.71;90.20;97890.22;5072455;28;20462;-72
2021/11/26 01:34:08;;;;;;;50.75;20.67;;;;;;;0.69;90.00;97873.56;5070737;28;20025;-71
2021/11/26 01:36:34;;;;;;;51.72;20.65;;;;;;;0.76;90.03;97876.38;5069087;28;20169;-72
2021/11/26 01:39:00;;;;;;;47.65;20.35;;;;;;;0.79;89.88;97878.75;5070791;28;20096;-71
2021/11/26 01:41:26;;;;;;;47.65;20.52;;;;;;;0.80;89.88;97877.72;5071310;28;20028;-71
2021/11/26 01:43:51;;;;;;;54.35;21.33;;;;;;;0.76;90.52;97876.38;5067743;28;20024;-72
2021/11/26 01:46:17;;;;;;;51.30;21.48;;;;;;;0.75;90.62;97882.72;5066991;28;20052;-72
2021/11/26 01:48:42;;;;;;;52.08;20.40;;;;;;;0.60;91.00;97858.56;5071645;28;20477;-72
2021/11/26 01:51:09;;;;;;;47.45;19.95;;;;;;;0.70;90.82;97872.53;5070083;28;20033;-72
2021/11/26 01:53:36;;;;;;;44.15;19.40;;;;;;;0.51;90.85;97841.75;5072525;28;20081;-72
2021/11/26 01:56:01;;;;;;;49.38;21.02;;;;;;;0.67;91.77;97862.22;5061137;28;20055;-72
2021/11/26 01:58:26;;;;;;;53.15;21.08;;;;;;;0.67;91.24;97859.56;5070916;28;20498;-72
2021/11/26 02:00:53;;;;;;;47.85;19.98;;;;;;;0.62;90.85;97841.41;5059539;28;20077;-72
2021/11/26 02:03:19;;;;;;;50.72;21.58;;;;;;;0.70;90.43;97853.91;5071406;28;20296;-72
2021/11/26 02:05:44;;;;;;;51.97;20.98;;;;;;;0.49;90.10;97809.13;5072068;28;20165;-72
2021/11/26 02:08:10;;;;;;;44.80;18.67;;;;;;;0.69;90.40;97844.28;5071343;28;20035;-72
2021/11/26 02:10:37;;;;;;;49.85;20.17;;;;;;;0.65;90.35;97840.25;5067900;28;20034;-72
2021/11/26 02:13:04;;;;;;;47.70;20.08;;;;;;;0.66;90.57;97839.28;5069530;28;20139;-71
2021/11/26 02:15:29;;;;;;;51.47;20.08;;;;;;;0.70;91.42;97847.75;5071958;28;20097;-71
2021/11/26 02:17:56;;;;;;;50.80;20.50;;;;;;;0.73;91.37;97845.59;5071889;28;20478;-71
2021/11/26 02:20:28;;;;;;;46.03;19.88;;;;;;;0.75;91.23;97842.78;5068031;28;20033;-71
2021/11/26 02:22:55;;;;;;;47.15;20.25;;;;;;;0.60;91.60;97819.50;5072180;28;20075;-71
2021/11/26 02:25:22;;;;;;;52.20;20.77;;;;;;;0.52;91.43;97798.16;5067527;28;20070;-71
2021/11/26 02:27:49;;;;;;;49.83;20.63;;;;;;;0.72;91.88;97835.13;5060251;28;20103;-71
2021/11/26 02:30:15;;;;;;;56.72;21.30;;;;;;;0.52;92.03;97803.47;5065270;28;20032;-71
2021/11/26 02:32:44;;;;;;;52.08;20.45;;;;;;;0.66;91.34;97825.97;5070059;28;20035;-71
2021/11/26 02:35:10;;;;;;;48.63;20.48;;;;;;;0.65;90.41;97824.28;5070177;28;20028;-72
2021/11/26 02:37:37;;;;;;;51.00;20.67;;;;;;;0.61;90.40;97828.28;5071753;28;20478;-71
2021/11/26 02:42:39;;;;;;;48.65;20.85;;;;;;;0.68;90.03;97823.13;5078677;22;20107;-73
2021/11/26 02:45:07;;;;;;;52.65;22.45;;;;;;;0.62;90.63;97817.47;5031824;28;20053;-70
2021/11/26 02:47:33;;;;;;;55.15;22.77;;;;;;;0.58;90.55;97804.69;5030237;28;20034;-70
2021/11/26 02:50:01;;;;;;;53.15;20.55;;;;;;;0.68;90.14;97815.97;5031827;28;20053;-70
2021/11/26 02:52:26;;;;;;;57.15;22.38;;;;;;;0.72;90.32;97819.16;5030737;28;20025;-70
2021/11/26 02:54:52;;;;;;;57.33;20.83;;;;;;;0.72;90.50;97808.50;5031510;28;20029;-70
2021/11/26 02:57:17;;;;;;;50.45;21.25;;;;;;;0.59;89.86;97799.16;5029326;28;20083;-72
2021/11/26 02:59:43;;;;;;;51.63;21.65;;;;;;;0.69;90.32;97814.16;5031662;28;20116;-72
2021/11/26 03:02:08;;;;;;;51.00;20.75;;;;;;;0.63;90.70;97795.19;5030219;28;20041;-71
2021/11/26 03:04:33;;;;;;;54.95;22.15;;;;;;;0.59;89.53;97780.53;5036470;28;20175;-72
2021/11/26 03:07:05;;;;;;;48.67;20.33;;;;;;;0.62;88.81;97774.06;5019825;28;20537;-72
2021/11/26 03:09:31;;;;;;;52.90;20.42;;;;;;;0.65;89.26;97793.22;5020800;28;20067;-71
2021/11/26 03:11:57;;;;;;;53.67;20.50;;;;;;;0.69;89.57;97788.38;5032034;28;20112;-71
2021/11/26 03:14:23;;;;;;;53.45;21.95;;;;;;;0.55;90.16;97771.25;5019722;28;20041;-71
2021/11/26 03:16:48;;;;;;;50.78;21.75;;;;;;;0.57;90.35;97776.38;5017350;28;20034;-72
2021/11/26 03:19:14;;;;;;;52.50;21.35;;;;;;;0.74;90.50;97787.88;5025533;28;20057;-72
2021/11/26 03:21:40;;;;;;;53.33;21.42;;;;;;;0.71;90.95;97773.06;5025493;28;20037;-72
2021/11/26 03:24:06;;;;;;;50.55;20.67;;;;;;;0.60;90.85;97765.41;5027891;28;20112;-71
2021/11/26 03:26:31;;;;;;;49.35;20.90;;;;;;;0.68;90.99;97775.22;5034010;28;20079;-72
2021/11/26 03:28:56;;;;;;;48.53;20.17;;;;;;;0.61;90.79;97759.09;5033303;28;20512;-72
2021/11/26 03:31:21;;;;;;;50.85;21.63;;;;;;;0.71;90.17;97759.75;5034620;28;20025;-72
2021/11/26 03:33:47;;;;;;;54.28;21.63;;;;;;;0.68;88.78;97756.59;5030466;28;20441;-73
2021/11/26 03:36:12;;;;;;;50.97;21.20;;;;;;;0.62;89.26;97742.13;5034195;28;20044;-73
2021/11/26 03:38:37;;;;;;;50.47;21.02;;;;;;;0.51;89.19;97726.50;5032128;28;20032;-73
2021/11/26 03:41:03;;;;;;;53.17;21.10;;;;;;;0.41;89.45;97716.81;5033419;28;20029;-73
2021/11/26 03:43:28;;;;;;;51.47;20.80;;;;;;;0.53;89.57;97721.84;5031173;28;20052;-72
2021/11/26 03:45:53;;;;;;;59.75;22.05;;;;;;;0.57;89.76;97737.28;5032371;28;20394;-72
2021/11/26 03:48:19;;;;;;;51.63;21.33;;;;;;;0.47;90.36;97715.31;5031384;28;20064;-73
2021/11/26 03:50:44;;;;;;;49.90;21.05;;;;;;;0.43;90.35;97709.50;5032163;28;20036;-72
2021/11/26 03:53:09;;;;;;;53.03;20.98;;;;;;;0.51;90.35;97713.19;5033163;28;20601;-71
2021/11/26 03:55:34;;;;;;;58.22;23.58;;;;;;;0.46;89.94;97716.34;5031449;28;20034;-72
2021/11/26 03:58:00;;;;;;;50.22;21.45;;;;;;;0.31;90.79;97684.22;5030011;28;20025;-72
2021/11/26 04:00:26;;;;;;;56.58;21.45;;;;;;;0.49;90.07;97704.53;5033789;28;20037;-73
2021/11/26 04:02:52;;;;;;;57.55;21.77;;;;;;;0.35;90.59;97693.56;5030897;28;20087;-71
2021/11/26 04:05:18;;;;;;;57.05;20.83;;;;;;;0.40;91.54;97714.34;5034866;28;20483;-72
2021/11/26 04:07:43;;;;;;;55.15;20.25;;;;;;;0.27;91.56;97685.56;5032675;28;20022;-72
2021/11/26 04:10:10;;;;;;;56.63;21.48;;;;;;;0.24;92.11;97688.56;5031892;28;20376;-73
2021/11/26 04:12:35;;;;;;;51.42;20.60;;;;;;;0.25;92.32;97700.03;5034037;28;20029;-73
2021/11/26 04:15:01;;;;;;;56.17;21.20;;;;;;;0.35;92.75;97706.03;5031653;28;20037;-72
2021/11/26 04:17:27;;;;;;;60.80;22.38;;;;;;;0.28;91.98;97691.72;5032749;28;20033;-72
2021/11/26 04:19:52;;;;;;;56.78;21.90;;;;;;;0.50;92.05;97704.38;5034943;28;20394;-72
2021/11/26 04:22:18;;;;;;;56.80;21.92;;;;;;;0.37;91.81;97682.75;5033755;28;20060;-72
2021/11/26 04:24:43;;;;;;;56.00;20.67;;;;;;;0.26;92.18;97661.78;5017797;28;20034;-72
2021/11/26 04:27:09;;;;;;;53.72;22.38;;;;;;;0.22;92.58;97656.81;5014613;28;20030;-72
2021/11/26 04:29:35;;;;;;;64.57;23.50;;;;;;;0.40;92.98;97682.41;5021624;28;20059;-71
2021/11/26 04:32:00;;;;;;;55.00;21.92;;;;;;;0.27;93.23;97650.16;5031131;28;20037;-71
2021/11/26 04:34:26;;;;;;;54.95;22.30;;;;;;;0.39;93.29;97654.13;5024182;28;20025;-71
2021/11/26 04:36:52;;;;;;;57.35;22.17;;;;;;;0.52;93.07;97673.09;5023837;28;20026;-72
2021/11/26 04:39:17;;;;;;;54.97;21.70;;;;;;;0.39;93.30;97652.34;5018276;28;20034;-72
2021/11/26 04:41:42;;;;;;;55.80;22.83;;;;;;;0.43;92.27;97658.13;5032884;28;20029;-72
2021/11/26 04:44:08;;;;;;;58.30;22.50;;;;;;;0.53;92.00;97666.78;5030056;28;20037;-71
2021/11/26 04:46:33;;;;;;;54.47;22.70;;;;;;;0.54;91.68;97663.09;5026445;28;20104;-71
2021/11/26 04:48:58;;;;;;;56.70;22.33;;;;;;;0.38;91.85;97642.66;5025199;28;20037;-72
2021/11/26 04:51:23;;;;;;;56.80;22.52;;;;;;;0.19;92.92;97619.91;5031281;28;20036;-71
2021/11/26 04:53:49;;;;;;;52.92;22.67;;;;;;;0.39;93.00;97649.66;5032375;28;20391;-71
2021/11/26 04:56:14;;;;;;;54.72;22.00;;;;;;;0.26;92.79;97632.53;5029288;28;20037;-73
2021/11/26 04:58:40;;;;;;;62.08;23.65;;;;;;;0.46;93.11;97664.94;5029902;28;20112;-72
2021/11/26 05:01:05;;;;;;;59.45;23.90;;;;;;;0.48;93.55;97679.75;5030131;28;20099;-72
2021/11/26 05:03:32;;;;;;;61.08;22.77;;;;;;;0.53;93.26;97665.94;5032704;28;20355;-73
2021/11/26 05:05:58;;;;;;;59.30;23.23;;;;;;;0.54;93.60;97673.75;5017911;28;20033;-71
2021/11/26 05:08:23;;;;;;;56.63;22.27;;;;;;;0.22;92.97;97616.91;5032243;28;20552;-70
2021/11/26 05:10:53;;;;;;;51.30;21.58;;;;;;;0.65;93.00;97661.94;5029350;28;20112;-74
2021/11/26 05:13:28;;;;;;;53.17;21.60;;;;;;;0.50;92.54;97656.47;5038899;28;20033;-74
2021/11/26 05:15:54;;;;;;;61.75;23.02;;;;;;;0.22;91.95;97634.69;5031965;28;20025;-75
2021/11/26 05:18:23;;;;;;;66.47;23.33;;;;;;;0.37;93.09;97653.50;5036770;28;20513;-71
2021/11/26 05:20:53;;;;;;;57.80;22.83;;;;;;;0.34;93.24;97653.81;5032370;28;20056;-70
2021/11/26 05:23:20;;;;;;;58.97;23.00;;;;;;;0.34;93.46;97651.13;5033183;28;20026;-71
2021/11/26 05:25:46;;;;;;;62.28;23.45;;;;;;;0.44;93.36;97659.78;5033054;28;20437;-70
2021/11/26 05:28:12;;;;;;;64.18;23.20;;;;;;;0.28;93.46;97631.38;5033005;28;20544;-69
2021/11/26 05:30:38;;;;;;;62.72;23.58;;;;;;;0.18;93.64;97623.56;5029068;28;20453;-69
2021/11/26 05:33:03;;;;;;;59.58;22.77;;;;;;;0.28;94.61;97630.53;5032799;28;20060;-70
2021/11/26 05:35:29;;;;;;;61.92;23.00;;;;;;;0.47;95.12;97654.13;5032927;28;20499;-71
2021/11/26 05:37:54;;;;;;;61.63;23.35;;;;;;;0.35;94.48;97615.56;5031612;28;20113;-71
2021/11/26 05:40:19;;;;;;;56.05;22.63;;;;;;;0.57;93.29;97648.63;5030481;28;20033;-69
2021/11/26 05:42:46;;;;;;;65.00;23.27;;;;;;;0.55;93.27;97638.19;5032865;28;20548;-70
2021/11/26 05:45:13;;;;;;;59.38;22.95;;;;;;;0.54;93.00;97641.81;5023210;28;20029;-69
2021/11/26 05:47:39;;;;;;;63.38;24.75;;;;;;;0.56;92.69;97639.81;5022513;28;20022;-70
2021/11/26 05:50:07;;;;;;;59.72;22.45;;;;;;;0.45;92.67;97624.22;5031534;28;20025;-72
2021/11/26 05:52:33;;;;;;;58.00;23.08;;;;;;;0.53;92.70;97628.69;5032261;28;20025;-71
2021/11/26 05:54:59;;;;;;;65.63;24.63;;;;;;;0.35;93.31;97610.25;5031648;28;20125;-77
2021/11/26 05:57:24;;;;;;;60.05;24.05;;;;;;;0.47;92.70;97629.34;5029213;28;20065;-69
2021/11/26 05:59:49;;;;;;;57.30;22.00;;;;;;;0.38;91.60;97616.06;5029425;28;20083;-72
2021/11/26 06:02:14;;;;;;;55.72;21.25;;;;;;;0.37;91.47;97595.78;5028867;28;20028;-72
2021/11/26 06:04:40;;;;;;;56.67;22.20;;;;;;;0.38;91.72;97601.94;5026031;28;20163;-71
2021/11/26 06:07:05;;;;;;;60.33;22.25;;;;;;;0.51;92.49;97612.88;5024895;28;20017;-72
2021/11/26 06:09:31;;;;;;;65.20;23.52;;;;;;;0.49;92.03;97617.53;5021448;28;20479;-71
2021/11/26 06:11:56;;;;;;;57.55;23.30;;;;;;;0.52;92.83;97616.38;5026114;28;20479;-71
2021/11/26 06:14:21;;;;;;;54.03;22.60;;;;;;;0.49;92.03;97596.25;5031862;28;20039;-73
2021/11/26 06:16:46;;;;;;;59.50;23.13;;;;;;;0.54;91.51;97604.56;5027957;28;20025;-71
2021/11/26 06:19:12;;;;;;;67.88;25.48;;;;;;;0.60;91.41;97609.22;5026916;28;20075;-71
2021/11/26 06:21:37;;;;;;;55.58;22.25;;;;;;;0.54;91.72;97596.56;5031800;28;20068;-71
2021/11/26 06:24:03;;;;;;;60.33;23.10;;;;;;;0.65;91.46;97598.03;5026979;28;20034;-71
2021/11/26 06:26:29;;;;;;;52.95;21.80;;;;;;;0.43;92.00;97575.66;5027240;28;20101;-70
2021/11/26 06:28:54;;;;;;;51.58;21.90;;;;;;;0.51;92.28;97594.25;5026524;28;20060;-72
2021/11/26 06:31:20;;;;;;;59.50;24.17;;;;;;;0.51;92.41;97588.13;5021644;28;20030;-75
2021/11/26 06:33:45;;;;;;;58.65;22.98;;;;;;;0.69;92.13;97595.91;5038418;28;20494;-71
2021/11/26 06:36:10;;;;;;;56.97;22.05;;;;;;;0.72;91.54;97600.88;5029895;28;20061;-73
2021/11/26 06:38:36;;;;;;;57.78;22.83;;;;;;;0.69;91.42;97602.03;5040329;28;20116;-74
2021/11/26 06:41:02;;;;;;;54.92;22.75;;;;;;;0.70;91.64;97602.88;5032685;28;20038;-70
2021/11/26 06:43:28;;;;;;;59.67;23.60;;;;;;;0.65;91.03;97598.91;5015440;28;20438;-70
2021/11/26 06:45:54;;;;;;;57.00;23.30;;;;;;;0.43;91.01;97565.84;5030538;28;20040;-74
2021/11/26 06:48:19;;;;;;;51.88;22.83;;;;;;;0.46;91.13;97574.50;5032080;28;20029;-73
2021/11/26 06:50:45;;;;;;;57.53;22.17;;;;;;;0.73;90.50;97586.53;5033108;28;20079;-73
2021/11/26 06:53:10;;;;;;;56.20;21.45;;;;;;;0.58;90.50;97595.25;5038048;28;20498;-71
2021/11/26 06:55:35;;;;;;;52.90;22.40;;;;;;;0.62;89.83;97585.91;5032525;28;20391;-75
2021/11/26 06:58:01;;;;;;;59.95;23.58;;;;;;;0.38;90.59;97554.03;5033219;28;20036;-75
2021/11/26 07:00:26;;;;;;;54.65;23.00;;;;;;;0.36;90.41;97543.56;5031954;28;20119;-71
2021/11/26 07:02:52;;;;;;;58.88;22.25;;;;;;;0.64;91.19;97580.44;5030252;28;20080;-70
2021/11/26 07:05:17;;;;;;;62.42;24.33;;;;;;;0.48;90.61;97556.53;5026717;28;20089;-70
2021/11/26 07:07:43;;;;;;;58.67;21.50;;;;;;;0.47;89.77;97549.53;5032161;28;20032;-70
2021/11/26 07:10:10;;;;;;;56.17;21.20;;;;;;;0.71;89.31;97576.09;5028970;28;20100;-69
2021/11/26 07:12:36;;;;;;;49.97;22.02;;;;;;;0.87;89.55;97573.38;5012427;28;20030;-70
2021/11/26 07:15:04;;;;;;;58.60;23.17;;;;;;;0.92;90.04;97569.34;5017843;28;20025;-70
2021/11/26 07:17:29;;;;;;;56.00;22.90;;;;;;;0.69;90.36;97538.16;5024379;28;20029;-70
2021/11/26 07:19:55;;;;;;;61.80;23.73;;;;;;;0.77;91.62;97562.09;5020119;28;20058;-70
2021/11/26 07:22:20;;;;;;;62.85;23.02;;;;;;;0.67;91.98;97561.44;5020611;28;20029;-70
2021/11/26 07:24:46;;;;;;;60.30;22.83;;;;;;;0.59;92.06;97532.22;5023495;28;20018;-70
2021/11/26 07:27:12;;;;;;;59.75;23.48;;;;;;;0.65;91.95;97540.34;5023349;28;20024;-72
2021/11/26 07:29:38;;;;;;;65.75;24.77;;;;;;;0.55;92.49;97518.41;5027482;28;20025;-72
2021/11/26 07:32:05;;;;;;;60.78;23.73;;;;;;;0.69;92.04;97537.34;5031172;28;20116;-73
2021/11/26 07:34:30;;;;;;;64.72;24.58;;;;;;;0.52;91.46;97515.25;5027242;28;20129;-72
2021/11/26 07:36:55;;;;;;;56.30;22.83;;;;;;;0.89;91.52;97538.56;5030321;28;20120;-77
2021/11/26 07:39:31;;;;;;;56.03;21.70;;;;;;;0.79;91.32;97520.16;5020671;28;20032;-72
2021/11/26 07:41:56;;;;;;;60.25;23.65;;;;;;;0.61;91.31;97517.72;5029387;28;20021;-71
2021/11/26 07:44:21;;;;;;;62.78;24.00;;;;;;;0.76;91.68;97527.63;5020772;28;20080;-72
2021/11/26 07:46:47;;;;;;;62.08;23.23;;;;;;;0.84;91.15;97533.78;5035603;28;20017;-71
2021/11/26 07:49:12;;;;;;;60.30;23.75;;;;;;;0.75;91.24;97520.66;5043900;28;20033;-74
2021/11/26 07:51:37;;;;;;;66.07;24.45;;;;;;;0.81;91.77;97526.13;5029540;28;20037;-70
2021/11/26 07:54:03;;;;;;;64.18;25.13;;;;;;;0.81;91.80;97519.97;5033038;28;20430;-70
2021/11/26 07:56:29;;;;;;;62.13;22.88;;;;;;;0.80;91.59;97513.00;5033744;28;20376;-72
2021/11/26 07:58:54;;;;;;;69.75;24.25;;;;;;;0.86;90.02;97513.13;5023178;28;20084;-72
2021/11/26 08:01:20;;;;;;;61.63;24.75;;;;;;;0.60;90.52;97481.47;5031689;28;20493;-72
2021/11/26 08:03:45;;;;;;;61.78;23.13;;;;;;;0.66;90.17;97482.63;5029638;28;20555;-71
2021/11/26 08:06:13;;;;;;;61.47;22.95;;;;;;;0.63;91.44;97496.28;5031788;28;20025;-70
2021/11/26 08:08:38;;;;;;;64.47;23.48;;;;;;;0.58;91.16;97486.13;5033387;28;20036;-72
2021/11/26 08:11:03;;;;;;;64.05;24.25;;;;;;;0.64;91.15;97489.94;5031783;28;20025;-73
2021/11/26 08:13:29;;;;;;;67.43;23.85;;;;;;;0.58;91.57;97483.47;5030651;28;20095;-74
2021/11/26 08:15:54;;;;;;;68.80;26.05;;;;;;;0.64;91.48;97480.13;5037441;28;20032;-73
2021/11/26 08:18:20;;;;;;;62.05;24.33;;;;;;;0.80;91.23;97468.56;5032469;28;20061;-73
2021/11/26 08:20:45;;;;;;;64.10;23.50;;;;;;;1.08;90.62;97487.53;5034540;28;20108;-72
2021/11/26 08:23:11;;;;;;;60.35;23.35;;;;;;;1.09;89.60;97497.19;5030869;28;20076;-74
2021/11/26 08:25:37;;;;;;;62.67;22.90;;;;;;;0.99;89.24;97485.91;5032469;28;20025;-73
2021/11/26 08:28:03;;;;;;;59.60;22.73;;;;;;;0.96;89.69;97467.63;5033560;28;20112;-73
2021/11/26 08:30:29;;;;;;;63.88;24.05;;;;;;;1.01;88.96;97461.78;5032007;28;20056;-76
2021/11/26 08:32:54;;;;;;;67.88;25.30;;;;;;;1.03;89.20;97473.09;5035037;28;20065;-75
2021/11/26 08:35:21;;;;;;;61.92;24.58;;;;;;;0.89;90.44;97458.69;5034045;28;20033;-73
2021/11/26 08:37:48;;;;;;;61.47;24.40;;;;;;;0.55;90.99;97411.97;5029861;28;20030;-72
2021/11/26 08:40:14;;;;;;;71.15;23.98;;;;;;;0.95;90.75;97455.34;5029082;28;20047;-72
2021/11/26 08:42:40;;;;;;;68.88;24.63;;;;;;;1.05;90.26;97452.47;5037530;28;20029;-74
2021/11/26 08:45:06;;;;;;;61.20;24.15;;;;;;;1.07;89.50;97437.97;5033393;28;20073;-74
2021/11/26 08:47:32;;;;;;;58.53;23.45;;;;;;;1.15;89.78;97425.56;5027564;28;20557;-78
2021/11/26 08:49:57;;;;;;;62.63;24.17;;;;;;;1.25;88.96;97420.84;5015079;28;20026;-77
2021/11/26 08:52:24;;;;;;;61.10;24.20;;;;;;;1.22;89.03;97438.00;5033828;28;20026;-80
2021/11/26 08:54:49;;;;;;;62.42;24.40;;;;;;;1.17;88.17;97408.41;5038325;28;20057;-74
2021/11/26 08:57:17;;;;;;;60.45;23.95;;;;;;;1.24;87.60;97408.53;5032231;28;20051;-72
2021/11/26 08:59:42;;;;;;;67.93;24.23;;;;;;;1.44;87.23;97430.16;5035132;28;20024;-68
2021/11/26 09:02:08;;;;;;;57.80;23.08;;;;;;;1.46;87.17;97423.66;5030683;28;20108;-75
2021/11/26 09:04:34;;;;;;;61.25;22.98;;;;;;;1.45;87.40;97424.66;5034452;28;20394;-75
2021/11/26 09:06:59;;;;;;;55.10;23.08;;;;;;;1.57;87.47;97421.56;5034637;28;20025;-74
2021/11/26 09:09:24;;;;;;;56.30;21.92;;;;;;;1.44;87.01;97406.19;5033533;28;20025;-73
2021/11/26 09:11:51;;;;;;;67.25;22.17;;;;;;;1.59;86.92;97417.72;5038450;28;20035;-72
2021/11/26 09:14:17;;;;;;;58.53;22.48;;;;;;;1.75;87.27;97432.72;5032898;28;20119;-72
2021/11/26 09:16:42;;;;;;;62.67;23.15;;;;;;;1.47;87.38;97403.19;5034164;28;20032;-74
2021/11/26 09:19:08;;;;;;;55.13;22.75;;;;;;;1.64;87.46;97412.66;5034843;28;20025;-74
2021/11/26 09:21:34;;;;;;;63.00;23.55;;;;;;;1.62;87.10;97427.19;5032709;28;20029;-73
2021/11/26 09:23:59;;;;;;;61.67;23.23;;;;;;;1.70;87.14;97425.28;5030264;28;20033;-72
2021/11/26 09:26:25;;;;;;;57.22;21.15;;;;;;;1.85;86.13;97421.81;5046915;28;20101;-71
2021/11/26 09:28:50;;;;;;;56.83;22.50;;;;;;;1.73;84.90;97397.44;5033013;28;20031;-73
2021/11/26 09:31:16;;;;;;;52.33;21.73;;;;;;;1.90;85.08;97401.56;5030503;28;20084;-74
2021/11/26 09:33:42;;;;;;;59.83;22.42;;;;;;;2.04;85.49;97423.09;5033361;28;20076;-71
2021/11/26 09:36:09;;;;;;;64.93;23.45;;;;;;;1.97;85.71;97410.50;5032652;28;20025;-73
2021/11/26 09:38:36;;;;;;;56.38;21.35;;;;;;;1.89;86.44;97423.94;5033232;28;20021;-71
2021/11/26 09:41:04;;;;;;;53.80;22.20;;;;;;;1.81;86.92;97417.84;5028176;28;20022;-72
2021/11/26 09:43:30;;;;;;;54.45;22.40;;;;;;;1.92;86.98;97412.06;5033565;28;20029;-73
2021/11/26 09:45:56;;;;;;;60.55;24.38;;;;;;;1.87;86.88;97415.28;5031786;28;20108;-72
2021/11/26 09:48:21;;;;;;;53.45;20.70;;;;;;;1.93;86.26;97417.22;5033960;28;20029;-73
2021/11/26 09:50:47;;;;;;;59.30;23.20;;;;;;;1.98;87.02;97404.16;5024716;28;20033;-72
2021/11/26 09:53:14;;;;;;;57.20;20.52;;;;;;;2.10;85.49;97403.72;5034930;28;20414;-70
2021/11/26 09:55:47;;;;;;;64.43;23.45;;;;;;;2.04;85.80;97369.75;5025186;28;20064;-72
2021/11/26 09:58:13;;;;;;;55.67;20.88;;;;;;;2.06;85.63;97368.56;5032383;28;20025;-73
2021/11/26 10:00:39;;;;;;;56.63;21.13;;;;;;;2.21;84.33;97379.22;5031441;28;20055;-72
2021/11/26 10:03:05;;;;;;;56.60;21.42;;;;;;;2.17;84.42;97375.25;5031046;28;20099;-77
2021/11/26 10:05:35;;;;;;;59.15;22.02;;;;;;;1.73;86.88;97386.78;5031057;28;20029;-70
2021/11/26 10:08:00;;;;;;;61.58;23.48;;;;;;;1.94;86.91;97388.72;5032800;28;20022;-72
2021/11/26 10:10:39;;;;;;;61.35;22.77;;;;;;;1.90;86.82;97380.25;5028335;28;20051;-69
2021/11/26 10:13:06;;;;;;;48.15;17.73;;;;;;;1.89;87.63;97367.09;5025214;28;20101;-68
2021/11/26 10:15:40;;;;;;;63.13;22.80;;;;;;;2.00;87.59;97365.81;5028347;28;20033;-70
2021/11/26 10:18:08;;;;;;;60.33;22.83;;;;;;;2.08;86.69;97323.03;5030838;28;20044;-73
2021/11/26 10:20:35;;;;;;;59.50;23.00;;;;;;;2.20;86.16;97345.53;5029585;28;20025;-74
2021/11/26 10:23:05;;;;;;;62.78;22.73;;;;;;;2.25;85.93;97334.31;5029605;28;20033;-71
2021/11/26 10:25:30;;;;;;;62.38;23.80;;;;;;;2.13;85.60;97342.81;5033244;28;20025;-80
2021/11/26 10:28:02;;;;;;;56.45;22.70;;;;;;;2.15;85.34;97321.28;5014240;28;20514;-76
2021/11/26 10:30:34;;;;;;;59.20;22.98;;;;;;;2.24;85.47;97335.34;5039737;28;20445;-74
2021/11/26 10:33:05;;;;;;;63.60;23.52;;;;;;;2.24;85.54;97330.81;5038684;28;20021;-71
2021/11/26 10:35:50;;;;;;;63.30;22.58;;;;;;;2.44;85.77;97319.53;5029686;28;20371;-71
2021/11/26 10:38:27;;;;;;;59.47;22.90;;;;;;;2.51;85.28;97325.78;5022700;28;20455;-72
2021/11/26 10:40:58;;;;;;;61.25;22.92;;;;;;;2.34;85.36;97314.53;5015622;28;20025;-71
2021/11/26 10:43:35;;;;;;;54.80;21.92;;;;;;;2.47;84.76;97309.34;5025697;28;20435;-71
2021/11/26 10:59:10;;;;;;;65.30;22.38;;;;;;;2.37;86.15;97288.28;5028322;28;20044;-71
2021/11/26 11:01:46;;;;;;;60.10;22.40;;;;;;;2.35;86.24;97273.47;5030741;28;20029;-71
2021/11/26 11:04:17;;;;;;;60.53;22.92;;;;;;;2.06;87.55;97261.03;5030934;28;20122;-71
2021/11/26 11:06:43;;;;;;;53.40;21.98;;;;;;;2.12;88.74;97262.94;5026771;28;20370;-71
2021/11/26 11:09:11;;;;;;;63.90;22.98;;;;;;;1.97;88.70;97245.16;5032332;28;20467;-71
2021/11/26 11:11:48;;;;;;;52.70;22.15;;;;;;;1.94;89.00;97260.72;5031617;28;20061;-71
2021/11/26 11:14:15;;;;;;;58.72;22.08;;;;;;;1.73;91.30;97258.81;5025708;28;20047;-72
2021/11/26 11:16:48;;;;;;;63.75;22.58;;;;;;;1.60;92.26;97248.78;5027751;28;20026;-73
2021/11/26 11:19:13;;;;;;;58.42;21.45;;;;;;;1.49;93.57;97251.91;5033443;28;20021;-73
2021/11/26 11:21:39;;;;;;;67.07;23.02;;;;;;;1.31;94.24;97223.81;5034966;28;20040;-73
2021/11/26 11:24:05;;;;;;;64.55;23.48;;;;;;;1.40;95.02;97229.84;5030678;28;20053;-73
2021/11/26 11:26:30;;;;;;;66.43;25.13;;;;;;;1.44;95.45;97225.81;5027502;28;20677;-74
2021/11/26 11:28:57;;;;;;;65.80;24.75;;;;;;;1.47;95.72;97219.31;5030402;28;20025;-74
2021/11/26 11:31:22;;;;;;;61.22;22.90;;;;;;;1.57;95.15;97232.31;5031367;28;20044;-73
2021/11/26 11:33:48;;;;;;;61.25;21.52;;;;;;;1.45;95.55;97200.81;5034198;28;20037;-73
2021/11/26 11:36:14;;;;;;;71.88;24.73;;;;;;;1.52;95.77;97209.72;5031375;28;20055;-71